Time;durP1;ratioP1;P1;durP2;ratioP2;P2;SDS_P1;SDS_P2;PMS_P1;PMS_P2;Temp;Humidity;BMP_temperature;BMP_pressure;BME280_temperature;BME280_humidity;BME280_pressure;Samples;Min_cycle;Max_cycle;Signal;HPM_P1;HPM_P2
2021/12/16 00:03:04;;;;;;;31.48;19.62;;;;;;;7.93;79.78;101664.19;2181315;81;29903;-59
2021/12/16 00:09:07;;;;;;;28.35;19.50;;;;;;;7.95;79.77;101653.47;2181381;81;33398;-60
2021/12/16 00:35:25;;;;;;;29.15;18.05;;;;;;;7.88;79.78;101652.23;2178123;80;29254;-66
2021/12/16 00:38:27;;;;;;;28.23;18.50;;;;;;;7.88;79.76;101637.55;2154088;82;31860;-60
2021/12/16 00:41:29;;;;;;;29.70;18.12;;;;;;;7.88;79.80;101646.89;2155271;82;34320;-60
2021/12/16 00:54:15;;;;;;;27.80;18.07;;;;;;;7.88;79.74;101650.03;2146780;82;31461;-61
2021/12/16 00:57:16;;;;;;;21.55;16.37;;;;;;;7.87;79.71;101648.27;2145303;82;34186;-69
2021/12/16 01:00:20;;;;;;;26.10;16.30;;;;;;;7.85;79.72;101638.97;2147180;82;30732;-64
2021/12/16 01:33:29;;;;;;;23.67;16.60;;;;;;;7.82;79.74;101644.34;2075507;85;31427;-61
2021/12/16 01:36:46;;;;;;;22.98;15.15;;;;;;;7.79;79.85;101644.39;2051359;86;27826;-61
2021/12/16 01:49:45;;;;;;;23.20;15.68;;;;;;;7.81;79.88;101619.91;2061572;84;30862;-60
2021/12/16 01:56:01;;;;;;;23.38;16.40;;;;;;;7.81;79.80;101623.01;2181682;81;29120;-64
2021/12/16 01:59:03;;;;;;;21.62;15.78;;;;;;;7.80;79.77;101617.24;2154931;82;31849;-60
2021/12/16 02:02:15;;;;;;;20.68;16.20;;;;;;;7.77;79.77;101616.85;2117268;84;34138;-60
2021/12/16 02:05:50;;;;;;;20.43;15.55;;;;;;;7.78;79.80;101616.42;2191535;81;29576;-61
2021/12/16 02:08:38;;;;;;;19.02;15.85;;;;;;;7.77;79.82;101621.32;2187949;81;27741;-60
2021/12/16 02:11:55;;;;;;;23.67;15.70;;;;;;;7.76;79.80;101627.09;2192126;81;29679;-61
2021/12/16 02:28:26;;;;;;;22.20;15.13;;;;;;;7.75;79.89;101628.00;2191797;81;28833;-61
2021/12/16 02:34:55;;;;;;;20.43;15.58;;;;;;;7.72;79.83;101628.05;2191698;81;33373;-60
2021/12/16 02:37:49;;;;;;;18.73;14.25;;;;;;;7.72;79.85;101627.61;2187478;81;30106;-61
2021/12/16 02:40:52;;;;;;;20.55;14.90;;;;;;;7.70;79.83;101629.84;2192308;81;27708;-60
2021/12/16 02:50:27;;;;;;;20.57;15.98;;;;;;;7.67;79.83;101620.59;2183617;81;35213;-60
2021/12/16 02:53:29;;;;;;;25.62;17.42;;;;;;;7.66;79.79;101628.16;2173677;81;29663;-59
2021/12/16 02:56:32;;;;;;;22.05;15.93;;;;;;;7.64;79.80;101632.17;2173603;81;27701;-59
2021/12/16 02:59:34;;;;;;;20.57;15.58;;;;;;;7.63;79.82;101627.73;2183972;81;29171;-59
2021/12/16 03:02:36;;;;;;;21.33;15.35;;;;;;;7.62;79.81;101625.97;2180327;81;32317;-60
2021/12/16 03:05:39;;;;;;;20.57;15.68;;;;;;;7.62;79.90;101623.77;2173662;81;33618;-59
2021/12/16 03:08:41;;;;;;;20.02;15.98;;;;;;;7.60;79.88;101620.67;2173913;81;29997;-58
2021/12/16 03:12:29;;;;;;;24.27;15.83;;;;;;;7.60;79.86;101626.48;2173920;81;27602;-61
2021/12/16 03:21:25;;;;;;;26.75;17.17;;;;;;;7.58;79.87;101626.95;2082418;85;34072;-59
2021/12/16 03:27:46;;;;;;;22.77;16.82;;;;;;;7.58;79.88;101630.95;2049248;86;27766;-62
2021/12/16 03:37:15;;;;;;;24.98;16.85;;;;;;;7.58;79.89;101645.16;2083231;85;33825;-59
2021/12/16 03:40:17;;;;;;;;;;;;;;;7.58;79.91;101646.95;2086236;85;30220;-60
2021/12/16 03:43:20;;;;;;;18.45;13.78;;;;;;;7.59;79.89;101648.25;2083403;85;27884;-60
2021/12/16 03:46:30;;;;;;;23.40;14.73;;;;;;;7.58;79.88;101653.62;2083161;85;29548;-61
2021/12/16 03:49:34;;;;;;;18.35;12.03;;;;;;;7.60;79.91;101651.34;2082474;85;31099;-60
2021/12/16 03:52:36;;;;;;;20.17;12.60;;;;;;;7.60;79.85;101648.68;2067560;86;33015;-59
2021/12/16 03:55:39;;;;;;;17.80;12.53;;;;;;;7.60;79.81;101644.68;2143202;81;30528;-59
2021/12/16 03:58:41;;;;;;;18.50;11.97;;;;;;;7.63;79.86;101652.20;2155791;82;27515;-59
2021/12/16 04:01:44;;;;;;;20.05;12.03;;;;;;;7.63;79.83;101646.87;2117721;84;28750;-59
2021/12/16 04:04:51;;;;;;;17.25;12.13;;;;;;;7.65;79.74;101650.41;2191575;81;31419;-59
2021/12/16 04:07:52;;;;;;;19.90;13.22;;;;;;;7.65;79.74;101653.94;2191814;81;33747;-59
2021/12/16 04:11:03;;;;;;;20.65;13.15;;;;;;;7.67;79.78;101650.80;2191787;81;29708;-59
2021/12/16 04:14:03;;;;;;;20.50;13.95;;;;;;;7.67;79.71;101650.80;2191772;81;27680;-60
2021/12/16 04:17:07;;;;;;;22.55;13.10;;;;;;;7.68;79.74;101657.89;2191463;81;29937;-59
2021/12/16 04:20:13;;;;;;;21.60;13.83;;;;;;;7.71;79.71;101658.28;2155790;82;30934;-59
2021/12/16 04:23:15;;;;;;;21.10;14.87;;;;;;;7.70;79.68;101660.09;2120476;82;32970;-59
2021/12/16 04:26:17;;;;;;;20.97;13.90;;;;;;;7.70;79.63;101654.75;2111573;84;29992;-60
2021/12/16 04:29:22;;;;;;;20.10;13.80;;;;;;;7.70;79.58;101652.52;2173703;81;27645;-58
2021/12/16 04:32:23;;;;;;;20.77;14.10;;;;;;;7.68;79.54;101652.56;2179018;81;29893;-63
2021/12/16 04:35:25;;;;;;;22.20;14.63;;;;;;;7.64;79.44;101650.84;2181947;81;31465;-59
2021/12/16 04:38:26;;;;;;;24.75;15.45;;;;;;;7.58;79.38;101641.15;2182269;81;34135;-59
2021/12/16 04:41:28;;;;;;;26.50;17.02;;;;;;;7.55;79.41;101646.99;2182563;81;30046;-61
2021/12/16 04:44:30;;;;;;;27.15;16.87;;;;;;;7.53;79.53;101647.47;2182594;81;27666;-63
2021/12/16 04:47:32;;;;;;;23.60;15.55;;;;;;;7.51;79.55;101654.60;2182610;81;29322;-60
2021/12/16 04:50:34;;;;;;;21.52;14.83;;;;;;;7.51;79.62;101648.83;2155596;82;32228;-59
2021/12/16 04:53:38;;;;;;;25.00;14.60;;;;;;;7.50;79.56;101657.73;2116899;84;35119;-60
2021/12/16 04:56:40;;;;;;;24.02;16.17;;;;;;;7.51;79.61;101651.94;2191947;81;29680;-60
2021/12/16 04:59:45;;;;;;;24.65;16.65;;;;;;;7.50;79.58;101646.17;2191958;81;27684;-62
2021/12/16 05:02:48;;;;;;;21.48;15.10;;;;;;;7.49;79.58;101638.64;2191917;81;28929;-59
2021/12/16 05:05:51;;;;;;;25.70;15.18;;;;;;;7.48;79.60;101635.55;2191851;81;31833;-60
2021/12/16 05:08:53;;;;;;;25.57;15.65;;;;;;;7.48;79.53;101635.98;2191595;81;32916;-60
2021/12/16 05:11:54;;;;;;;24.70;16.00;;;;;;;7.46;79.49;101638.68;2191622;81;30821;-59
2021/12/16 05:14:56;;;;;;;22.37;14.83;;;;;;;7.45;79.57;101650.25;2156010;82;27598;-59
2021/12/16 05:18:01;;;;;;;22.17;14.87;;;;;;;7.46;79.65;101652.02;2191680;81;29900;-60
2021/12/16 05:21:14;;;;;;;27.85;17.27;;;;;;;7.47;79.62;101661.77;2192093;81;31887;-59
2021/12/16 05:27:19;;;;;;;22.95;13.75;;;;;;;7.52;79.63;101648.37;2192295;81;29490;-60
2021/12/16 05:30:21;;;;;;;20.40;13.30;;;;;;;7.54;79.59;101653.23;2192078;81;27573;-62
2021/12/16 05:33:24;;;;;;;27.22;15.35;;;;;;;7.53;79.65;101652.33;2191262;81;29835;-60
2021/12/16 05:36:26;;;;;;;22.98;16.57;;;;;;;7.55;79.69;101650.53;2191407;80;31057;-60
2021/12/16 05:39:28;;;;;;;26.00;16.50;;;;;;;7.56;79.68;101642.95;2154173;82;33356;-60
2021/12/16 05:42:33;;;;;;;30.27;18.17;;;;;;;7.56;79.78;101635.42;2154403;82;29994;-60
2021/12/16 05:45:37;;;;;;;27.65;18.85;;;;;;;7.56;79.78;101638.95;2155953;82;27728;-60
2021/12/16 05:48:42;;;;;;;30.45;19.95;;;;;;;7.56;79.77;101636.76;2155458;82;29585;-59
2021/12/16 05:51:48;;;;;;;26.40;18.70;;;;;;;7.54;79.81;101644.77;2164807;81;31292;-59
2021/12/16 05:54:50;;;;;;;28.75;19.37;;;;;;;7.55;79.93;101647.86;2174230;81;34768;-60
2021/12/16 05:57:52;;;;;;;31.95;19.95;;;;;;;7.56;79.92;101652.29;2153871;82;30599;-59
2021/12/16 06:01:00;;;;;;;34.70;22.48;;;;;;;7.56;79.97;101653.63;2173707;81;27682;-59
2021/12/16 06:04:02;;;;;;;30.50;20.08;;;;;;;7.57;79.92;101654.52;2154658;82;29221;-59
2021/12/16 06:07:05;;;;;;;35.78;23.98;;;;;;;7.56;79.97;101653.63;2173541;81;32243;-59
2021/12/16 06:10:16;;;;;;;39.70;27.20;;;;;;;7.57;79.97;101660.72;2189198;81;33009;-61
2021/12/16 06:13:12;;;;;;;45.98;26.85;;;;;;;7.55;80.00;101655.86;2188057;81;29636;-59
2021/12/16 06:26:31;;;;;;;42.70;25.23;;;;;;;7.58;80.08;101650.48;2101489;84;34179;-63
2021/12/16 06:29:29;;;;;;;39.38;23.32;;;;;;;7.58;80.10;101652.28;2100635;84;30524;-61
2021/12/16 06:32:30;;;;;;;37.28;23.52;;;;;;;7.59;80.16;101662.05;2101786;84;27785;-60
2021/12/16 06:35:33;;;;;;;37.63;23.87;;;;;;;7.59;80.24;101658.05;2101806;84;28707;-65
2021/12/16 06:38:35;;;;;;;34.23;23.10;;;;;;;7.61;80.24;101658.91;2101822;84;31137;-61
2021/12/16 06:41:38;;;;;;;37.23;23.02;;;;;;;7.62;80.25;101663.78;2101601;84;33839;-59
2021/12/16 06:44:50;;;;;;;43.28;25.08;;;;;;;7.60;80.28;101659.34;2101930;84;29639;-62
2021/12/16 06:47:57;;;;;;;35.03;23.47;;;;;;;7.61;80.30;101660.25;2100989;84;27692;-71
2021/12/16 06:51:01;;;;;;;38.40;23.90;;;;;;;7.62;80.29;101656.64;2099664;84;29847;-63
2021/12/16 06:54:06;;;;;;;45.20;26.02;;;;;;;7.62;80.34;101652.64;2094175;85;32432;-60
2021/12/16 06:57:25;;;;;;;37.78;23.92;;;;;;;7.62;80.36;101656.64;2094779;85;34342;-63
2021/12/16 07:00:32;;;;;;;35.98;24.05;;;;;;;7.64;80.35;101657.50;2094964;85;30191;-59
2021/12/16 07:03:45;;;;;;;36.98;23.38;;;;;;;7.65;80.41;101659.27;2151483;81;27702;-59
2021/12/16 07:06:38;;;;;;;37.70;23.77;;;;;;;7.65;80.43;101653.94;2158860;81;28662;-63
2021/12/16 07:09:41;;;;;;;39.48;25.40;;;;;;;7.67;80.44;101654.80;2189348;81;31844;-59
2021/12/16 07:12:48;;;;;;;43.83;24.87;;;;;;;7.69;80.48;101653.45;2189236;81;32123;-61
2021/12/16 07:15:49;;;;;;;37.95;23.80;;;;;;;7.68;80.45;101659.23;2188266;81;31089;-60
2021/12/16 07:18:51;;;;;;;39.92;23.77;;;;;;;7.69;80.54;101661.46;2189037;81;27715;-66
2021/12/16 07:21:53;;;;;;;38.98;24.90;;;;;;;7.67;80.52;101660.59;2188810;81;29527;-61
2021/12/16 07:24:55;;;;;;;38.70;24.82;;;;;;;7.67;80.58;101661.93;2188983;81;31843;-66
2021/12/16 07:27:56;;;;;;;41.18;23.22;;;;;;;7.67;80.63;101660.13;2188974;81;34248;-61
2021/12/16 07:30:58;;;;;;;41.88;24.63;;;;;;;7.69;80.66;101662.80;2188953;81;30894;-62
2021/12/16 07:34:01;;;;;;;39.67;24.43;;;;;;;7.69;80.70;101662.80;2189067;81;27717;-59
2021/12/16 07:37:06;;;;;;;35.88;23.35;;;;;;;7.68;80.70;101663.23;2189259;81;29868;-66
2021/12/16 07:40:13;;;;;;;43.00;26.45;;;;;;;7.69;80.80;101656.13;2188381;81;31302;-59
2021/12/16 07:43:40;;;;;;;42.03;26.97;;;;;;;7.70;80.79;101656.52;2195741;80;33188;-59
2021/12/16 07:46:30;;;;;;;39.75;24.55;;;;;;;7.70;80.82;101660.09;2184926;81;30979;-59
2021/12/16 07:49:39;;;;;;;41.88;25.82;;;;;;;7.66;80.85;101662.37;2188995;81;27542;-59
2021/12/16 07:52:41;;;;;;;37.95;23.98;;;;;;;7.67;80.90;101667.27;2190285;81;28836;-60
2021/12/16 07:55:43;;;;;;;35.80;24.70;;;;;;;7.67;80.92;101676.60;2191772;81;32333;-60
2021/12/16 07:58:45;;;;;;;36.73;24.07;;;;;;;7.69;81.04;101675.66;2181588;81;33759;-60
2021/12/16 08:01:47;;;;;;;42.08;25.52;;;;;;;7.71;81.00;101678.30;2181219;81;30819;-60
2021/12/16 08:04:52;;;;;;;44.33;25.12;;;;;;;7.75;81.12;101672.02;2153810;81;27685;-59
2021/12/16 08:07:54;;;;;;;39.83;25.13;;;;;;;7.79;81.13;101676.41;2181897;81;28648;-63
2021/12/16 08:10:58;;;;;;;39.10;24.20;;;;;;;7.84;81.11;101669.22;2181276;81;31709;-62
2021/12/16 08:14:03;;;;;;;42.10;25.82;;;;;;;7.87;81.06;101667.80;2180911;81;35267;-63
2021/12/16 08:17:13;;;;;;;42.17;25.48;;;;;;;7.92;81.16;101679.77;2181586;81;29698;-67
2021/12/16 08:20:18;;;;;;;35.40;23.35;;;;;;;7.95;81.00;101685.49;2181251;81;27748;-63
2021/12/16 08:23:21;;;;;;;36.35;22.95;;;;;;;7.99;81.04;101684.55;2181325;81;28653;-61
2021/12/16 08:26:23;;;;;;;38.38;23.10;;;;;;;7.99;81.03;101686.75;2180998;81;32257;-59
2021/12/16 08:29:25;;;;;;;33.92;22.52;;;;;;;8.02;81.01;101685.37;2181085;81;33530;-63
2021/12/16 08:32:27;;;;;;;35.45;22.37;;;;;;;8.02;80.93;101688.03;2181348;81;30044;-68
2021/12/16 08:35:29;;;;;;;33.55;22.27;;;;;;;8.03;80.92;101685.80;2181241;81;27772;-59
2021/12/16 08:38:32;;;;;;;37.05;21.70;;;;;;;8.02;80.91;101689.84;2181201;81;29186;-63
2021/12/16 08:41:39;;;;;;;34.67;21.70;;;;;;;8.01;80.92;101684.94;2181509;81;31101;-60
2021/12/16 08:44:40;;;;;;;40.88;21.95;;;;;;;8.02;81.06;101692.04;2143109;83;33127;-59
2021/12/16 08:47:44;;;;;;;38.33;21.20;;;;;;;8.02;80.96;101697.38;2142784;83;30456;-61
2021/12/16 08:50:48;;;;;;;32.88;20.97;;;;;;;8.03;80.95;101711.16;2157946;80;27737;-60
2021/12/16 08:53:51;;;;;;;31.27;19.50;;;;;;;8.02;80.89;101720.06;2156070;81;33967;-60
2021/12/16 08:56:53;;;;;;;30.88;20.10;;;;;;;8.00;80.86;101728.54;2152943;82;30821;-63
2021/12/16 08:59:56;;;;;;;32.45;18.87;;;;;;;8.00;80.97;101728.54;2153700;82;34244;-59
2021/12/16 09:02:58;;;;;;;35.28;21.33;;;;;;;8.01;80.97;101726.77;2154000;82;30662;-59
2021/12/16 09:06:01;;;;;;;30.88;19.17;;;;;;;8.02;80.98;101725.87;2153813;82;27634;-59
2021/12/16 09:09:06;;;;;;;27.07;17.25;;;;;;;8.04;81.03;101730.27;2153643;82;29952;-59
2021/12/16 09:12:15;;;;;;;;;;;;;;;8.06;81.06;101719.11;2156233;82;32219;-59
2021/12/16 09:15:16;;;;;;;26.48;16.35;;;;;;;8.08;81.04;101724.41;2153848;82;33825;-59
2021/12/16 09:18:22;;;;;;;26.23;16.02;;;;;;;8.08;81.02;101719.55;2173809;81;29705;-59
2021/12/16 09:21:29;;;;;;;24.10;15.72;;;;;;;8.06;80.98;101721.78;2153212;82;27734;-60
2021/12/16 09:24:32;;;;;;;25.37;16.12;;;;;;;8.08;81.05;101725.75;2174246;81;28700;-59
2021/12/16 09:27:34;;;;;;;20.77;13.70;;;;;;;8.04;80.91;101727.59;2189361;81;31883;-63
2021/12/16 09:30:37;;;;;;;19.50;13.45;;;;;;;8.01;80.98;101732.97;2189020;81;34174;-60
2021/12/16 09:33:43;;;;;;;20.02;13.98;;;;;;;8.01;81.14;101738.31;2189386;81;29678;-60
2021/12/16 09:36:46;;;;;;;21.90;13.65;;;;;;;8.07;81.22;101740.00;2154116;82;28255;-60
2021/12/16 09:39:48;;;;;;;19.05;12.45;;;;;;;8.12;81.24;101735.91;2173677;81;28714;-66
2021/12/16 09:42:52;;;;;;;25.88;13.93;;;;;;;8.14;81.16;101729.66;2153911;82;31053;-62
2021/12/16 09:45:58;;;;;;;15.55;11.20;;;;;;;8.17;81.16;101724.72;2173949;81;32980;-59
2021/12/16 09:49:00;;;;;;;19.62;10.78;;;;;;;8.19;81.13;101726.91;2189340;81;30133;-63
2021/12/16 09:52:05;;;;;;;18.02;11.38;;;;;;;8.21;81.14;101730.44;2189287;81;27588;-60
2021/12/16 09:55:09;;;;;;;16.97;11.57;;;;;;;8.21;81.05;101731.30;2189143;81;28679;-66
2021/12/16 09:58:11;;;;;;;15.87;11.70;;;;;;;8.23;81.13;101721.95;2189647;81;31026;-62
2021/12/16 10:01:15;;;;;;;17.70;12.25;;;;;;;8.28;81.27;101726.74;2153750;82;33246;-63
2021/12/16 10:04:20;;;;;;;21.97;15.20;;;;;;;8.32;81.18;101732.47;2173916;81;29689;-59
2021/12/16 10:07:27;;;;;;;16.12;12.33;;;;;;;8.37;81.24;101732.38;2154270;82;27654;-60
2021/12/16 10:10:30;;;;;;;18.17;11.97;;;;;;;8.37;81.12;101737.72;2174225;81;28703;-64
2021/12/16 10:13:43;;;;;;;14.30;11.10;;;;;;;8.35;81.07;101737.77;2189322;81;31015;-60
2021/12/16 10:20:26;;;;;;;30.20;19.70;;;;;;;8.33;81.02;101728.02;2188050;81;30395;-61
2021/12/16 10:23:36;;;;;;;18.45;12.60;;;;;;;8.34;81.06;101731.99;2188956;81;27625;-62
2021/12/16 10:26:38;;;;;;;17.17;11.55;;;;;;;8.32;80.99;101727.12;2189029;81;28952;-59
2021/12/16 10:29:53;;;;;;;17.75;11.73;;;;;;;8.33;81.07;101740.04;2189091;81;32201;-59
2021/12/16 10:32:55;;;;;;;14.05;11.33;;;;;;;8.33;81.11;101738.70;2188924;81;34152;-66
2021/12/16 10:36:25;;;;;;;18.00;13.25;;;;;;;8.35;81.21;101736.89;2153572;82;30908;-59
2021/12/16 10:39:27;;;;;;;16.70;11.57;;;;;;;8.39;81.21;101722.56;2173995;81;27524;-59
2021/12/16 10:42:38;;;;;;;18.10;12.98;;;;;;;8.40;81.14;101728.80;2117308;84;28751;-62
2021/12/16 10:45:47;;;;;;;15.63;11.22;;;;;;;8.39;81.10;101732.38;2123164;82;31045;-61
2021/12/16 10:48:57;;;;;;;13.88;10.15;;;;;;;8.40;81.11;101721.65;2171575;81;34196;-62
2021/12/16 10:52:17;;;;;;;17.00;9.98;;;;;;;8.40;81.08;101716.31;2188149;81;30062;-59
2021/12/16 10:55:19;;;;;;;17.37;11.20;;;;;;;8.41;81.14;101708.73;2155568;82;27670;-61
2021/12/16 10:58:21;;;;;;;15.53;10.48;;;;;;;8.43;81.16;101712.72;2191938;81;29087;-61
2021/12/16 11:01:36;;;;;;;11.50;9.25;;;;;;;8.47;81.19;101715.30;2191663;81;31528;-60
2021/12/16 11:05:13;;;;;;;;;;;;;;;8.51;81.21;101703.70;2180407;81;34171;-61
2021/12/16 11:08:15;;;;;;;20.80;10.65;;;;;;;8.56;81.19;101716.96;2155704;82;29098;-59
2021/12/16 11:11:19;;;;;;;17.05;11.48;;;;;;;8.57;81.14;101718.73;2181921;81;28252;-58
2021/12/16 11:14:25;;;;;;;11.97;8.53;;;;;;;8.57;81.12;101721.84;2126919;82;28678;-61
2021/12/16 11:17:38;;;;;;;15.03;10.58;;;;;;;8.58;81.10;101727.61;2119034;84;31880;-60
2021/12/16 11:20:52;;;;;;;15.05;10.13;;;;;;;8.56;81.07;101737.00;2119044;84;33324;-60
2021/12/16 11:23:54;;;;;;;11.43;9.28;;;;;;;8.56;80.97;101741.00;2177629;81;29673;-60
2021/12/16 11:26:55;;;;;;;29.90;21.87;;;;;;;8.55;80.96;101741.91;2191688;81;28285;-60
2021/12/16 11:30:19;;;;;;;19.42;15.55;;;;;;;8.52;80.90;101740.62;2191583;81;29882;-60
2021/12/16 11:33:32;;;;;;;17.35;12.63;;;;;;;8.46;80.91;101749.59;2155159;82;31891;-59
2021/12/16 11:36:44;;;;;;;19.23;14.55;;;;;;;8.45;80.98;101752.27;2177521;81;33478;-59
2021/12/16 11:39:47;;;;;;;20.32;13.08;;;;;;;8.44;81.08;101753.21;2191833;81;29627;-60
2021/12/16 11:43:05;;;;;;;18.00;12.70;;;;;;;8.43;81.07;101750.11;2191558;81;28448;-59
2021/12/16 11:46:15;;;;;;;20.27;13.15;;;;;;;8.42;81.06;101727.85;2191701;81;28665;-61
2021/12/16 11:49:34;;;;;;;19.23;13.48;;;;;;;8.48;81.30;101728.22;2191551;81;31030;-60
2021/12/16 11:52:39;;;;;;;24.27;16.30;;;;;;;8.54;81.31;101718.78;2189056;81;33815;-60
2021/12/16 11:55:40;;;;;;;;;;;;;;;8.62;81.33;101727.52;2175719;81;30500;-60
2021/12/16 11:58:44;;;;;;;18.75;14.75;;;;;;;8.69;81.40;101719.39;2173925;81;27694;-60
2021/12/16 12:01:46;;;;;;;24.52;18.35;;;;;;;8.74;81.36;101722.41;2173719;81;28647;-60
2021/12/16 12:04:49;;;;;;;23.55;19.05;;;;;;;8.76;81.25;101710.38;2173348;81;32209;-60
2021/12/16 12:07:56;;;;;;;23.57;17.80;;;;;;;8.79;81.24;101711.18;2153514;82;34132;-60
2021/12/16 12:11:16;;;;;;;19.32;13.03;;;;;;;8.82;81.09;101714.23;2173820;81;29637;-62
2021/12/16 12:14:18;;;;;;;27.95;17.37;;;;;;;8.81;81.03;101721.83;2151652;82;27706;-61
2021/12/16 12:17:21;;;;;;;21.57;15.00;;;;;;;8.79;80.89;101723.64;2151545;82;29067;-59
2021/12/16 12:20:33;;;;;;;22.02;15.85;;;;;;;8.78;80.87;101720.55;2151181;82;31639;-59
2021/12/16 12:23:35;;;;;;;41.13;22.60;;;;;;;8.77;80.86;101705.45;2178721;81;33065;-59
2021/12/16 12:26:47;;;;;;;37.17;22.07;;;;;;;8.74;80.76;101702.36;2188853;81;30495;-60
2021/12/16 12:29:54;;;;;;;27.20;17.02;;;;;;;8.74;80.76;101695.69;2189200;81;27577;-60
2021/12/16 12:32:57;;;;;;;23.42;16.15;;;;;;;8.72;80.77;101702.84;2188815;81;29933;-60
2021/12/16 12:36:01;;;;;;;22.73;15.72;;;;;;;8.69;80.74;101711.38;2153655;82;31922;-59
2021/12/16 12:39:07;;;;;;;33.48;20.40;;;;;;;8.69;80.74;101711.38;2174079;81;35112;-60
2021/12/16 12:42:12;;;;;;;33.18;18.70;;;;;;;8.67;80.68;101715.44;2153849;82;29641;-60
2021/12/16 12:45:17;;;;;;;24.27;17.73;;;;;;;8.65;80.70;101719.92;2173907;81;27614;-59
2021/12/16 12:48:20;;;;;;;22.77;16.10;;;;;;;8.65;80.76;101718.58;2153463;82;30035;-60
2021/12/16 12:51:32;;;;;;;18.20;13.62;;;;;;;8.64;80.74;101715.48;2173564;81;32314;-60
2021/12/16 12:54:36;;;;;;;24.57;16.25;;;;;;;8.62;80.72;101719.97;2188680;81;34163;-59
2021/12/16 12:57:40;;;;;;;27.62;16.93;;;;;;;8.59;80.72;101723.59;2189034;81;29675;-60
2021/12/16 13:00:58;;;;;;;34.27;20.12;;;;;;;8.58;80.60;101726.27;2189197;81;47114;-59
2021/12/16 13:04:08;;;;;;;35.98;19.05;;;;;;;8.54;80.60;101724.56;2188161;81;28710;-61
2021/12/16 13:07:12;;;;;;;24.02;14.30;;;;;;;8.51;80.62;101732.18;2188937;81;31092;-59
2021/12/16 13:10:21;;;;;;;21.95;13.70;;;;;;;8.49;80.63;101740.23;2188893;81;33918;-59
2021/12/16 13:23:28;;;;;;;20.55;15.58;;;;;;;8.44;80.62;101750.07;2187299;81;31800;-61
2021/12/16 13:26:37;;;;;;;25.55;16.37;;;;;;;8.44;80.71;101754.08;2187290;81;34207;-64
2021/12/16 13:29:41;;;;;;;25.40;17.82;;;;;;;8.44;80.73;101750.55;2188414;81;30880;-60
2021/12/16 13:32:48;;;;;;;20.97;14.47;;;;;;;8.45;80.78;101750.94;2188724;81;27684;-61
2021/12/16 13:36:18;;;;;;;19.40;13.50;;;;;;;8.43;80.73;101751.45;2219470;80;27737;-60
2021/12/16 13:39:21;;;;;;;20.40;14.85;;;;;;;8.44;80.77;101751.87;2153663;81;32242;-60
2021/12/16 13:42:23;;;;;;;23.40;17.25;;;;;;;8.43;80.73;101756.79;2154821;82;34009;-59
2021/12/16 13:45:42;;;;;;;16.02;11.48;;;;;;;8.42;80.76;101763.03;2154357;82;30692;-61
2021/12/16 13:49:01;;;;;;;19.25;13.08;;;;;;;8.40;80.74;101770.19;2154034;81;27800;-61
2021/12/16 14:05:48;;;;;;;;;;;;;;;8.29;80.81;101767.69;2123452;84;28250;-60
2021/12/16 14:08:51;;;;;;;22.05;13.55;;;;;;;8.27;80.88;101767.73;2117350;84;28776;-60
2021/12/16 14:15:20;;;;;;;31.07;16.90;;;;;;;8.21;80.91;101771.35;2227777;79;33422;-62
2021/12/16 14:35:12;;;;;;;20.32;14.00;;;;;;;8.19;81.05;101777.16;2192104;81;29636;-60
2021/12/16 14:38:15;;;;;;;23.02;15.68;;;;;;;8.18;81.06;101788.78;2201654;79;27706;-60
2021/12/16 14:50:59;;;;;;;17.15;11.68;;;;;;;8.14;81.04;101820.86;2215727;79;29603;-61
2021/12/16 14:54:01;;;;;;;20.75;13.50;;;;;;;8.13;81.02;101831.10;2197413;81;27588;-60
2021/12/16 14:57:04;;;;;;;16.52;11.63;;;;;;;8.12;81.09;101831.57;2196938;81;29514;-60
2021/12/16 15:00:20;;;;;;;16.95;12.90;;;;;;;8.08;80.92;101830.31;2217321;79;31924;-59
2021/12/16 15:03:33;;;;;;;18.95;12.07;;;;;;;8.06;80.98;101833.88;2196363;81;32987;-59
2021/12/16 15:06:45;;;;;;;24.12;14.28;;;;;;;8.04;81.00;101827.68;2206441;79;30741;-58
2021/12/16 15:09:43;;;;;;;77.53;41.60;;;;;;;8.01;80.90;101834.86;2237727;79;27624;-60
2021/12/16 15:12:56;;;;;;;83.87;47.75;;;;;;;7.96;80.79;101838.03;2238868;79;28667;-66
2021/12/16 15:34:23;;;;;;;91.63;47.93;;;;;;;7.66;80.86;101841.08;2197117;81;32472;-60
2021/12/16 15:42:51;;;;;;;29.05;17.32;;;;;;;7.50;80.77;101835.50;2197637;81;27722;-60
2021/12/16 15:45:54;;;;;;;31.00;17.27;;;;;;;7.41;80.77;101827.16;2208525;79;29999;-60
2021/12/16 15:48:59;;;;;;;27.22;14.63;;;;;;;7.33;80.61;101827.25;2238462;79;32402;-60
2021/12/16 15:52:02;;;;;;;23.85;14.60;;;;;;;7.22;80.55;101832.69;2237709;79;33025;-64
2021/12/16 15:55:05;;;;;;;26.50;15.60;;;;;;;7.13;80.50;101841.67;2238812;79;30688;-60
2021/12/16 15:58:19;;;;;;;36.90;21.65;;;;;;;7.01;80.47;101844.93;2239036;79;27672;-60
2021/12/16 16:01:25;;;;;;;37.13;20.10;;;;;;;6.89;80.49;101840.13;2229169;79;29527;-60
2021/12/16 16:04:34;;;;;;;29.30;18.60;;;;;;;6.78;80.51;101848.68;2197454;81;31031;-59
2021/12/16 16:07:41;;;;;;;21.55;14.73;;;;;;;6.68;80.73;101858.09;2223864;79;32982;-60
2021/12/16 16:10:47;;;;;;;22.98;14.07;;;;;;;6.67;81.03;101863.41;2238363;79;30914;-60
2021/12/16 16:13:57;;;;;;;24.70;16.80;;;;;;;6.67;81.18;101867.41;2238885;79;27688;-63
2021/12/16 16:17:02;;;;;;;23.75;14.63;;;;;;;6.67;81.27;101862.08;2239170;79;28661;-61
2021/12/16 16:20:06;;;;;;;26.25;15.63;;;;;;;6.69;81.35;101868.28;2238041;79;31114;-59
2021/12/16 16:23:11;;;;;;;24.12;16.12;;;;;;;6.70;81.37;101875.38;2218345;79;33730;-60
2021/12/16 16:26:14;;;;;;;;;;;;;;;6.71;81.31;101878.91;2200912;81;29522;-60
2021/12/16 16:29:20;;;;;;;25.12;15.78;;;;;;;6.70;81.34;101880.70;2197857;81;27719;-60
2021/12/16 16:32:25;;;;;;;23.25;14.55;;;;;;;6.68;81.33;101886.05;2207620;79;29380;-59
2021/12/16 16:35:28;;;;;;;20.48;12.90;;;;;;;6.68;81.26;101895.80;2238729;79;31063;-60
2021/12/16 16:38:37;;;;;;;22.60;14.15;;;;;;;6.61;81.07;101893.64;2238238;79;33851;-60
2021/12/16 16:41:50;;;;;;;22.27;12.82;;;;;;;6.58;81.14;101891.45;2213748;79;31000;-61
2021/12/16 16:44:56;;;;;;;21.65;13.30;;;;;;;6.56;81.20;101890.12;2236062;79;28400;-60
2021/12/16 16:48:06;;;;;;;19.85;11.30;;;;;;;6.56;81.27;101886.59;2238733;79;29078;-61
2021/12/16 16:51:12;;;;;;;19.20;11.68;;;;;;;6.56;81.24;101898.56;2236612;78;32491;-59
2021/12/16 16:54:30;;;;;;;19.77;11.13;;;;;;;6.56;81.29;101896.77;2237825;79;28086;-61
2021/12/16 16:57:40;;;;;;;21.48;11.93;;;;;;;6.58;81.35;101882.14;2238696;79;30423;-61
2021/12/16 17:00:47;;;;;;;18.00;10.60;;;;;;;6.61;81.32;101864.81;2211092;79;27719;-59
2021/12/16 17:03:50;;;;;;;20.40;11.97;;;;;;;6.63;81.29;101866.98;2196922;81;29827;-59
2021/12/16 17:06:56;;;;;;;19.07;10.72;;;;;;;6.63;81.31;101887.86;2201063;79;31954;-60
2021/12/16 17:09:59;;;;;;;20.72;12.65;;;;;;;6.65;81.32;101882.51;2238667;79;32969;-60
2021/12/16 17:13:06;;;;;;;15.90;10.25;;;;;;;6.67;81.30;101874.97;2238584;79;30217;-60
2021/12/16 17:19:17;;;;;;;20.30;10.88;;;;;;;6.69;81.23;101887.83;2196681;81;28682;-60
2021/12/16 17:22:29;;;;;;;16.80;10.82;;;;;;;6.71;81.23;101902.88;2197099;81;31920;-60
2021/12/16 17:25:31;;;;;;;21.93;12.33;;;;;;;6.71;81.24;101910.87;2209651;79;33021;-60
2021/12/16 17:28:33;;;;;;;19.77;11.55;;;;;;;6.71;81.23;101914.44;2238492;79;30498;-60
2021/12/16 17:31:45;;;;;;;19.62;11.75;;;;;;;6.73;81.20;101921.97;2238719;79;27673;-60
2021/12/16 17:34:55;;;;;;;18.00;12.25;;;;;;;6.75;81.17;101911.29;2237060;78;29491;-60
2021/12/16 17:38:05;;;;;;;16.75;10.43;;;;;;;6.75;81.16;101896.64;2228796;79;31094;-60
2021/12/16 17:41:09;;;;;;;18.92;10.95;;;;;;;6.75;81.12;101905.53;2228318;79;35188;-60
2021/12/16 17:44:14;;;;;;;17.63;10.00;;;;;;;6.75;81.03;101901.53;2228938;79;30831;-60
2021/12/16 17:47:23;;;;;;;12.07;8.68;;;;;;;6.74;81.03;101884.22;2228587;79;27701;-60
2021/12/16 17:50:33;;;;;;;15.98;10.18;;;;;;;6.73;81.02;101881.12;2228867;79;28671;-61
2021/12/16 17:53:40;;;;;;;11.93;8.93;;;;;;;6.72;80.98;101890.90;2209751;79;31766;-61